Time;durP1;ratioP1;P1;durP2;ratioP2;P2;SDS_P1;SDS_P2;PMS_P1;PMS_P2;Temp;Humidity;BMP_temperature;BMP_pressure;BME280_temperature;BME280_humidity;BME280_pressure;Samples;Min_cycle;Max_cycle;Signal;HPM_P1;HPM_P2
2022/12/09 00:00:53;;;;;;;16.27;8.35;;;;;;;-2.22;100.00;98071.41;5053162;28;20081;-78
2022/12/09 00:03:20;;;;;;;15.55;6.70;;;;;;;-2.15;100.00;98077.91;5055855;28;20127;-78
2022/12/09 00:05:47;;;;;;;13.48;7.07;;;;;;;-2.33;100.00;98053.72;5064175;28;20040;-78
2022/12/09 00:08:13;;;;;;;15.70;6.90;;;;;;;-2.24;100.00;98086.69;5066276;28;20510;-78
2022/12/09 00:10:43;;;;;;;14.18;7.35;;;;;;;-2.40;100.00;98057.84;5061710;28;20072;-78
2022/12/09 00:13:09;;;;;;;13.30;7.80;;;;;;;-2.33;100.00;98064.34;5064184;28;20056;-78
2022/12/09 00:15:40;;;;;;;11.00;6.47;;;;;;;-2.35;100.00;98066.31;5062427;28;20049;-78
2022/12/09 00:18:08;;;;;;;15.02;6.65;;;;;;;-2.50;100.00;98038.31;5058583;28;20567;-78
2022/12/09 00:20:35;;;;;;;18.80;7.00;;;;;;;-2.40;100.00;98073.81;5071290;28;20504;-78
2022/12/09 00:23:01;;;;;;;13.32;7.10;;;;;;;-2.58;100.00;98046.13;5058700;28;20474;-78
2022/12/09 00:25:28;;;;;;;14.30;7.38;;;;;;;-2.56;100.00;98046.81;5065462;28;20127;-78
2022/12/09 00:27:54;;;;;;;14.07;7.32;;;;;;;-2.55;100.00;98059.16;5071388;28;20135;-78
2022/12/09 00:30:21;;;;;;;16.50;7.40;;;;;;;-2.49;100.00;98056.81;5071710;28;20048;-78
2022/12/09 00:32:47;;;;;;;16.08;7.13;;;;;;;-2.53;100.00;98055.41;5064099;28;20488;-78
2022/12/09 00:35:15;;;;;;;18.55;7.82;;;;;;;-2.72;100.00;98040.13;5064701;28;20045;-78
2022/12/09 00:37:42;;;;;;;12.80;6.82;;;;;;;-2.47;100.00;98059.34;5071460;28;20130;-78
2022/12/09 00:40:09;;;;;;;12.82;6.72;;;;;;;-2.46;100.00;98060.22;5061467;28;20052;-78
2022/12/09 00:42:36;;;;;;;16.05;7.57;;;;;;;-2.55;100.00;98052.00;5068677;28;20495;-78
2022/12/09 00:45:03;;;;;;;15.18;7.60;;;;;;;-2.78;100.00;98030.00;5066563;28;20045;-78
2022/12/09 00:47:29;;;;;;;15.38;7.35;;;;;;;-2.64;100.00;98058.13;5050595;28;20149;-78
2022/12/09 00:49:56;;;;;;;14.70;6.88;;;;;;;-2.57;100.00;98066.44;5050407;28;20413;-78
2022/12/09 00:52:24;;;;;;;14.07;7.15;;;;;;;-2.72;100.00;98036.63;5061128;28;20071;-78
2022/12/09 00:54:51;;;;;;;13.68;7.15;;;;;;;-2.76;100.00;98040.53;5055872;28;20469;-78
2022/12/09 00:57:17;;;;;;;14.90;6.55;;;;;;;-2.76;100.00;98046.69;5067780;28;20068;-78
2022/12/09 00:59:44;;;;;;;13.55;7.35;;;;;;;-2.69;100.00;98049.69;5070994;28;20049;-78
2022/12/09 01:02:10;;;;;;;18.83;7.78;;;;;;;-2.79;100.00;98059.41;5066131;28;20060;-78
2022/12/09 01:04:37;;;;;;;13.48;6.97;;;;;;;-2.91;100.00;98050.63;5061744;28;20048;-78
2022/12/09 01:07:03;;;;;;;15.55;7.00;;;;;;;-3.05;100.00;98041.97;5052439;28;20055;-78
2022/12/09 01:09:33;;;;;;;12.18;7.20;;;;;;;-3.03;100.00;98040.03;5070421;28;20060;-78
2022/12/09 01:12:00;;;;;;;12.27;7.03;;;;;;;-2.93;100.00;98061.38;5067027;28;20415;-78
2022/12/09 01:14:26;;;;;;;13.57;6.45;;;;;;;-3.03;100.00;98063.09;5055091;28;20049;-78
2022/12/09 01:16:53;;;;;;;13.57;7.50;;;;;;;-3.02;100.00;98055.00;5064925;28;20041;-78
2022/12/09 01:19:19;;;;;;;13.25;6.72;;;;;;;-3.18;100.00;98043.94;5070670;28;20044;-78
2022/12/09 01:21:46;;;;;;;13.45;6.32;;;;;;;-3.14;100.00;98060.50;5070552;28;20048;-78
2022/12/09 01:24:13;;;;;;;12.50;6.82;;;;;;;-3.14;100.00;98076.47;5063414;28;20051;-78
2022/12/09 01:26:41;;;;;;;11.30;6.63;;;;;;;-3.33;100.00;98050.50;5064190;28;20115;-78
2022/12/09 01:29:08;;;;;;;10.00;6.13;;;;;;;-3.22;100.00;98077.09;5069649;28;20143;-78
2022/12/09 01:31:35;;;;;;;12.50;6.45;;;;;;;-3.31;100.00;98060.06;5049774;28;20044;-78
2022/12/09 01:34:01;;;;;;;11.65;6.82;;;;;;;-3.22;100.00;98074.44;5053101;28;20135;-78
2022/12/09 01:36:29;;;;;;;9.68;6.38;;;;;;;-3.43;100.00;98045.13;5063159;28;20048;-78
2022/12/09 01:38:57;;;;;;;12.35;6.50;;;;;;;-3.35;100.00;98058.63;5069889;28;20045;-78
2022/12/09 01:41:24;;;;;;;10.40;5.63;;;;;;;-3.48;100.00;98031.34;5070756;28;20127;-78
2022/12/09 01:44:17;;;;;;;10.93;6.18;;;;;;;-3.45;100.00;98026.59;5064345;28;20148;-78
2022/12/09 01:46:44;;;;;;;10.30;5.40;;;;;;;-3.35;100.00;98025.88;5057747;28;20045;-78
2022/12/09 01:49:15;;;;;;;11.77;5.97;;;;;;;-3.45;100.00;98033.75;5070423;28;20443;-78
2022/12/09 01:51:46;;;;;;;12.52;5.70;;;;;;;-3.52;100.00;98046.69;5068775;28;20080;-78
2022/12/09 01:54:12;;;;;;;10.30;5.32;;;;;;;-3.66;100.00;98045.13;5059964;28;20048;-77
2022/12/09 01:56:40;;;;;;;9.35;5.28;;;;;;;-3.75;100.00;98021.97;5064988;28;20185;-78
2022/12/09 01:59:10;;;;;;;12.85;5.57;;;;;;;-3.79;100.00;98032.00;5074249;28;20135;-78
2022/12/09 02:01:39;;;;;;;11.15;6.35;;;;;;;-3.75;100.00;98044.06;5070788;28;20040;-77
2022/12/09 02:04:06;;;;;;;13.57;5.68;;;;;;;-3.83;100.00;98021.75;5056499;28;20049;-78
2022/12/09 02:06:35;;;;;;;11.82;5.30;;;;;;;-3.67;100.00;98043.47;5069992;28;20494;-78
2022/12/09 02:09:01;;;;;;;12.03;5.57;;;;;;;-3.89;100.00;98008.94;5068255;28;20057;-78
2022/12/09 02:11:39;;;;;;;11.52;6.03;;;;;;;-3.74;100.00;98029.81;5071825;28;20054;-77
2022/12/09 02:14:13;;;;;;;11.35;6.18;;;;;;;-3.73;100.00;98033.31;5067798;28;20101;-77
2022/12/09 02:16:48;;;;;;;11.43;5.65;;;;;;;-3.82;100.00;98015.47;5069421;28;20041;-77
2022/12/09 02:19:26;;;;;;;10.90;5.68;;;;;;;-3.94;100.00;98006.66;5074055;28;20132;-77
2022/12/09 02:21:58;;;;;;;11.25;5.63;;;;;;;-3.93;100.00;98005.69;5072909;28;20051;-77
2022/12/09 02:24:34;;;;;;;10.20;5.90;;;;;;;-3.84;100.00;98014.72;5065818;28;20045;-77
2022/12/09 02:27:10;;;;;;;11.63;5.78;;;;;;;-4.01;100.00;97987.72;5069533;28;20052;-77
2022/12/09 02:30:08;;;;;;;10.30;6.30;;;;;;;-4.04;100.00;97985.28;5073883;28;20053;-78
2022/12/09 02:33:19;;;;;;;10.55;5.70;;;;;;;-4.16;100.00;97973.84;5066882;28;20333;-77
2022/12/09 02:35:52;;;;;;;13.13;5.30;;;;;;;-4.09;100.00;97979.53;5057674;28;20044;-77
2022/12/09 02:38:22;;;;;;;11.30;6.10;;;;;;;-4.16;100.00;97971.19;5064711;28;20045;-77
2022/12/09 02:40:53;;;;;;;10.23;5.95;;;;;;;-3.99;100.00;97999.06;5053505;28;20055;-77
2022/12/09 02:43:24;;;;;;;10.73;5.78;;;;;;;-4.20;100.00;97968.91;5066780;28;20072;-77
2022/12/09 02:45:52;;;;;;;11.27;5.53;;;;;;;-4.14;100.00;97963.09;5063246;28;20041;-77
2022/12/09 02:48:25;;;;;;;8.02;4.82;;;;;;;-3.99;100.00;97988.44;5073744;28;20048;-78
2022/12/09 02:50:56;;;;;;;10.60;5.68;;;;;;;-4.21;100.00;97953.97;5071869;28;20051;-77
2022/12/09 02:53:24;;;;;;;11.82;5.55;;;;;;;-4.09;100.00;97959.13;5063737;28;20053;-77
2022/12/09 02:55:53;;;;;;;11.98;5.95;;;;;;;-4.13;100.00;97960.31;5066004;28;20488;-77
2022/12/09 02:58:19;;;;;;;11.32;5.38;;;;;;;-4.09;100.00;97972.38;5073284;28;20132;-77
2022/12/09 03:00:46;;;;;;;11.40;5.87;;;;;;;-4.22;100.00;97949.59;5073145;28;20056;-77
2022/12/09 03:03:16;;;;;;;10.10;5.40;;;;;;;-4.21;100.00;97973.38;5070519;28;20389;-77
2022/12/09 03:05:50;;;;;;;11.13;5.68;;;;;;;-4.22;100.00;97976.16;5059112;28;20041;-77
2022/12/09 03:08:28;;;;;;;15.40;5.37;;;;;;;-4.40;100.00;97957.22;5054666;28;20045;-77
2022/12/09 03:10:59;;;;;;;10.20;5.77;;;;;;;-4.45;100.00;97933.69;5065992;28;20066;-77
2022/12/09 03:13:38;;;;;;;14.03;6.07;;;;;;;-4.48;100.00;97940.06;5054453;28;20055;-77
2022/12/09 03:16:10;;;;;;;11.03;5.93;;;;;;;-4.45;100.00;97941.66;5058611;28;20128;-77
2022/12/09 03:18:41;;;;;;;10.77;5.93;;;;;;;-4.33;100.00;97969.03;5053049;28;20048;-77
2022/12/09 03:21:08;;;;;;;13.37;5.50;;;;;;;-4.54;100.00;97951.16;5052933;28;20056;-77
2022/12/09 03:23:37;;;;;;;9.23;5.63;;;;;;;-4.54;100.00;97952.97;5059269;28;20044;-77
2022/12/09 03:26:06;;;;;;;10.32;5.28;;;;;;;-4.67;100.00;97953.06;5066678;28;20070;-78
2022/12/09 03:28:38;;;;;;;12.68;5.07;;;;;;;-4.60;100.00;97954.31;5072356;28;20186;-77
2022/12/09 03:31:09;;;;;;;8.53;4.53;;;;;;;-4.52;100.00;97962.50;5072171;28;20044;-77
2022/12/09 03:33:35;;;;;;;7.73;4.90;;;;;;;-4.73;100.00;97938.47;5068254;28;20040;-77
2022/12/09 03:36:06;;;;;;;8.70;5.10;;;;;;;-4.75;100.00;97935.13;5072264;28;20048;-78
2022/12/09 03:38:38;;;;;;;7.50;4.77;;;;;;;-4.69;100.00;97939.09;5072765;28;20059;-77
2022/12/09 03:41:10;;;;;;;11.13;5.57;;;;;;;-4.66;100.00;97923.78;5071348;28;20407;-77
2022/12/09 03:43:40;;;;;;;9.30;4.57;;;;;;;-4.57;100.00;97938.16;5056898;28;20048;-77
2022/12/09 03:46:07;;;;;;;6.97;4.23;;;;;;;-4.70;100.00;97940.06;5063120;28;20810;-78
2022/12/09 03:48:34;;;;;;;8.87;4.87;;;;;;;-4.81;100.00;97946.19;5066933;28;20377;-77
2022/12/09 03:51:06;;;;;;;13.20;4.57;;;;;;;-4.75;100.00;97958.16;5070602;28;20135;-77
2022/12/09 03:53:42;;;;;;;9.33;5.10;;;;;;;-4.68;100.00;97962.84;5062010;28;20408;-77
2022/12/09 03:56:15;;;;;;;10.17;4.80;;;;;;;-4.90;100.00;97934.47;5054132;28;20055;-77
2022/12/09 03:58:44;;;;;;;10.70;4.17;;;;;;;-4.68;100.00;97948.72;5071875;28;20051;-77
2022/12/09 04:01:11;;;;;;;8.38;4.15;;;;;;;-4.80;100.00;97919.56;5072023;28;20055;-77
2022/12/09 04:03:38;;;;;;;6.87;4.00;;;;;;;-4.92;100.00;97915.22;5057846;28;20173;-77
2022/12/09 04:06:05;;;;;;;9.10;4.47;;;;;;;-4.80;100.00;97961.16;5063883;28;20063;-77
2022/12/09 04:08:32;;;;;;;9.80;4.37;;;;;;;-4.98;100.00;97935.06;5070258;28;20488;-77
2022/12/09 04:11:00;;;;;;;6.73;4.17;;;;;;;-4.96;100.00;97926.19;5071858;28;20056;-77
2022/12/09 04:13:27;;;;;;;7.10;4.77;;;;;;;-4.95;100.00;97912.81;5060978;28;20063;-77
2022/12/09 04:15:53;;;;;;;6.03;3.70;;;;;;;-4.77;100.00;97942.34;5063978;28;20055;-77
2022/12/09 04:18:20;;;;;;;8.50;4.30;;;;;;;-5.02;100.00;97912.41;5051707;28;20056;-77
2022/12/09 04:20:46;;;;;;;9.83;4.23;;;;;;;-4.90;100.00;97942.44;5052250;28;20496;-77
2022/12/09 04:23:13;;;;;;;7.17;4.20;;;;;;;-5.10;100.00;97908.66;5055157;28;20048;-77
2022/12/09 04:25:39;;;;;;;5.60;3.87;;;;;;;-4.90;100.00;97928.34;5063065;28;20072;-77
2022/12/09 04:28:07;;;;;;;7.10;4.10;;;;;;;-5.07;100.00;97908.41;5059002;28;20040;-77
2022/12/09 04:30:34;;;;;;;6.33;3.90;;;;;;;-4.92;100.00;97932.91;5065085;28;20055;-77
2022/12/09 04:33:00;;;;;;;5.17;3.50;;;;;;;-5.09;100.00;97897.09;5064898;28;20063;-76
2022/12/09 04:35:28;;;;;;;9.33;4.63;;;;;;;-4.91;100.00;97916.88;5057828;28;20135;-77
2022/12/09 04:37:54;;;;;;;8.87;4.03;;;;;;;-5.01;100.00;97903.50;5065575;28;20132;-77
2022/12/09 04:40:21;;;;;;;8.37;4.60;;;;;;;-4.98;100.00;97897.97;5067948;28;20169;-77
2022/12/09 04:42:47;;;;;;;7.50;4.00;;;;;;;-4.90;100.00;97915.94;5067110;28;20045;-77
2022/12/09 04:45:15;;;;;;;7.10;4.30;;;;;;;-4.95;100.00;97918.09;5069828;28;20063;-77
2022/12/09 04:47:42;;;;;;;5.23;3.90;;;;;;;-4.87;100.00;97914.84;5055390;28;20511;-77
2022/12/09 04:50:09;;;;;;;8.50;4.00;;;;;;;-5.14;100.00;97875.41;5051251;28;20087;-77
2022/12/09 04:52:36;;;;;;;5.60;3.50;;;;;;;-4.99;100.00;97900.72;5049258;28;20083;-78
2022/12/09 04:55:02;;;;;;;7.03;3.80;;;;;;;-5.03;100.00;97896.63;5067781;28;20436;-77
2022/12/09 04:57:29;;;;;;;4.77;3.57;;;;;;;-5.27;100.00;97867.56;5067286;28;20052;-77
2022/12/09 04:59:56;;;;;;;8.37;4.13;;;;;;;-5.19;100.00;97854.56;5063422;28;20041;-77
2022/12/09 05:02:24;;;;;;;5.87;3.20;;;;;;;-5.13;100.00;97856.75;5070101;28;20060;-77
2022/12/09 05:04:51;;;;;;;9.37;4.70;;;;;;;-4.98;100.00;97866.16;5059711;28;20052;-77
2022/12/09 05:07:17;;;;;;;9.50;5.00;;;;;;;-5.03;100.00;97843.63;5069708;28;20048;-77
2022/12/09 05:09:44;;;;;;;9.63;5.20;;;;;;;-5.07;100.00;97839.50;5070822;28;20410;-77
2022/12/09 05:12:10;;;;;;;23.10;7.33;;;;;;;-4.84;100.00;97869.53;5069837;28;20048;-77
2022/12/09 05:14:37;;;;;;;19.87;7.43;;;;;;;-5.06;100.00;97835.91;5060262;28;20052;-77
2022/12/09 05:17:05;;;;;;;10.57;5.73;;;;;;;-5.10;100.00;97839.75;5067502;28;20058;-77
2022/12/09 05:19:33;;;;;;;10.93;5.53;;;;;;;-5.09;100.00;97841.44;5070655;28;20139;-77
2022/12/09 05:22:00;;;;;;;10.00;5.40;;;;;;;-5.05;100.00;97840.25;5070462;28;20416;-77
2022/12/09 05:24:26;;;;;;;8.80;4.97;;;;;;;-5.04;100.00;97850.72;5061853;28;20445;-77
2022/12/09 05:26:53;;;;;;;10.17;5.83;;;;;;;-5.02;100.00;97838.19;5063024;28;20098;-77
2022/12/09 05:29:19;;;;;;;12.10;5.60;;;;;;;-4.88;100.00;97860.97;5067780;28;20044;-77
2022/12/09 05:31:46;;;;;;;9.43;5.10;;;;;;;-4.98;100.00;97847.59;5066089;28;20090;-77
2022/12/09 05:34:13;;;;;;;7.70;4.90;;;;;;;-5.06;100.00;97847.38;5060520;28;20503;-79
2022/12/09 05:36:41;;;;;;;9.50;4.53;;;;;;;-5.18;100.00;97824.44;5062753;28;20045;-78
2022/12/09 05:39:07;;;;;;;8.57;5.03;;;;;;;-5.05;100.00;97849.03;5062981;28;20395;-79
2022/12/09 05:41:34;;;;;;;11.80;4.93;;;;;;;-5.04;100.00;97857.84;5061840;28;20415;-79
2022/12/09 05:44:01;;;;;;;9.87;5.50;;;;;;;-5.10;100.00;97840.63;5055317;28;20502;-78
2022/12/09 05:46:28;;;;;;;7.07;5.10;;;;;;;-5.02;100.00;97838.19;5049181;28;20403;-78
2022/12/09 05:48:55;;;;;;;7.43;5.10;;;;;;;-5.07;100.00;97834.22;5061459;28;20044;-78
2022/12/09 05:51:23;;;;;;;8.80;4.80;;;;;;;-5.24;100.00;97825.78;5065592;28;20047;-78
2022/12/09 05:53:51;;;;;;;7.10;4.10;;;;;;;-5.14;100.00;97841.81;5069351;28;20498;-78
2022/12/09 05:56:19;;;;;;;5.50;3.37;;;;;;;-5.35;100.00;97817.81;5063748;28;20057;-78
2022/12/09 05:58:46;;;;;;;5.53;3.53;;;;;;;-5.32;100.00;97809.63;5064625;28;20638;-78
2022/12/09 06:01:13;;;;;;;6.30;4.10;;;;;;;-5.23;100.00;97819.50;5064616;28;20159;-78
2022/12/09 06:03:40;;;;;;;10.27;4.30;;;;;;;-5.14;100.00;97828.56;5068804;28;20511;-78
2022/12/09 06:06:08;;;;;;;12.17;4.73;;;;;;;-5.30;100.00;97794.44;5054639;28;20069;-78
2022/12/09 06:08:35;;;;;;;9.67;4.60;;;;;;;-5.28;100.00;97804.91;5069053;28;20073;-79
2022/12/09 06:11:03;;;;;;;10.00;4.70;;;;;;;-5.18;100.00;97816.50;5064927;28;20392;-78
2022/12/09 06:13:30;;;;;;;11.27;4.93;;;;;;;-5.08;100.00;97828.06;5068125;28;20044;-78
2022/12/09 06:16:02;;;;;;;6.80;4.57;;;;;;;-5.14;100.00;97819.78;5065024;28;20400;-78
2022/12/09 06:18:28;;;;;;;5.43;3.93;;;;;;;-5.18;100.00;97809.41;5067716;28;20048;-78
2022/12/09 06:20:55;;;;;;;10.70;5.40;;;;;;;-5.11;100.00;97820.38;5065587;28;20051;-78
2022/12/09 06:23:22;;;;;;;10.23;5.33;;;;;;;-5.06;100.00;97817.34;5065467;28;20040;-78
2022/12/09 06:25:48;;;;;;;12.53;5.57;;;;;;;-5.16;100.00;97804.00;5053496;28;20060;-79
2022/12/09 06:28:18;;;;;;;10.90;5.53;;;;;;;-5.21;100.00;97796.41;5063400;28;20053;-79
2022/12/09 06:30:44;;;;;;;9.38;4.63;;;;;;;-5.06;100.00;97823.53;5070655;28;20052;-78
2022/12/09 06:33:11;;;;;;;8.13;5.37;;;;;;;-5.00;100.00;97827.47;5058899;28;20059;-78
2022/12/09 06:35:38;;;;;;;10.03;4.73;;;;;;;-5.11;100.00;97793.03;5069712;28;20144;-79
2022/12/09 06:38:04;;;;;;;11.37;4.70;;;;;;;-4.94;100.00;97823.50;5069669;28;20055;-78
2022/12/09 06:40:31;;;;;;;8.10;4.60;;;;;;;-5.11;100.00;97799.16;5070621;28;20135;-78
2022/12/09 06:42:57;;;;;;;8.23;4.40;;;;;;;-5.09;100.00;97821.06;5067787;28;20048;-78
2022/12/09 06:45:25;;;;;;;6.23;3.70;;;;;;;-5.11;100.00;97816.88;5065534;28;20545;-78
2022/12/09 06:47:52;;;;;;;5.70;3.57;;;;;;;-4.98;100.00;97831.69;5067067;28;20074;-78
2022/12/09 06:50:18;;;;;;;7.73;3.87;;;;;;;-5.01;100.00;97817.84;5070676;28;20095;-78
2022/12/09 06:52:45;;;;;;;6.80;4.00;;;;;;;-5.10;100.00;97794.69;5063100;28;20048;-78
2022/12/09 06:55:11;;;;;;;9.30;5.27;;;;;;;-5.07;100.00;97794.44;5073440;28;20075;-78
2022/12/09 06:57:38;;;;;;;11.30;4.77;;;;;;;-4.91;100.00;97834.69;5064705;28;20052;-78
2022/12/09 07:00:06;;;;;;;9.53;5.23;;;;;;;-4.97;100.00;97808.69;5072953;28;20041;-77
2022/12/09 07:02:34;;;;;;;9.07;5.23;;;;;;;-5.09;100.00;97807.81;5068360;28;20051;-78
2022/12/09 07:05:01;;;;;;;11.50;4.47;;;;;;;-5.16;100.00;97794.22;5070456;28;20048;-78
2022/12/09 07:07:27;;;;;;;11.90;4.93;;;;;;;-5.09;100.00;97810.47;5058111;28;20080;-78
2022/12/09 07:09:54;;;;;;;8.90;5.20;;;;;;;-5.06;100.00;97815.56;5073904;28;20048;-78
2022/12/09 07:12:21;;;;;;;9.90;5.03;;;;;;;-4.93;100.00;97830.50;5067489;28;20131;-78
2022/12/09 07:14:47;;;;;;;8.97;4.97;;;;;;;-4.94;100.00;97837.59;5070319;28;20044;-78
2022/12/09 07:17:15;;;;;;;9.57;4.90;;;;;;;-5.04;100.00;97823.41;5073891;28;20044;-78
2022/12/09 07:19:43;;;;;;;15.97;5.30;;;;;;;-4.85;100.00;97844.84;5072416;28;20048;-78
2022/12/09 07:22:10;;;;;;;10.37;5.00;;;;;;;-4.94;100.00;97820.84;5071121;28;20049;-78
2022/12/09 07:24:37;;;;;;;13.50;5.37;;;;;;;-4.92;100.00;97826.88;5072208;28;20128;-78
2022/12/09 07:27:04;;;;;;;12.00;6.07;;;;;;;-4.95;100.00;97812.06;5071170;28;20067;-78
2022/12/09 07:29:31;;;;;;;11.70;6.53;;;;;;;-4.93;100.00;97804.81;5072667;28;20166;-78
2022/12/09 07:31:58;;;;;;;8.73;4.90;;;;;;;-4.66;100.00;97841.56;5068371;28;20080;-78
2022/12/09 07:34:24;;;;;;;9.67;6.30;;;;;;;-4.61;100.00;97833.25;5072255;28;20048;-78
2022/12/09 07:36:52;;;;;;;11.43;5.70;;;;;;;-4.62;100.00;97810.38;5072286;28;20056;-78
2022/12/09 07:39:20;;;;;;;13.23;6.53;;;;;;;-4.53;100.00;97816.72;5072532;28;20099;-78
2022/12/09 07:41:51;;;;;;;12.73;6.03;;;;;;;-4.52;100.00;97800.69;5063897;28;20040;-78
2022/12/09 07:44:18;;;;;;;10.47;6.03;;;;;;;-4.51;100.00;97796.25;5071727;28;20521;-78
2022/12/09 07:46:44;;;;;;;10.97;5.87;;;;;;;-4.36;100.00;97815.38;5069412;28;20056;-78
2022/12/09 07:49:11;;;;;;;9.40;5.60;;;;;;;-4.50;100.00;97790.81;5072347;28;20044;-78
2022/12/09 07:51:38;;;;;;;12.33;6.10;;;;;;;-4.35;100.00;97793.16;5070669;28;20052;-78
2022/12/09 07:54:06;;;;;;;12.33;6.00;;;;;;;-4.41;100.00;97789.22;5071513;28;20056;-78
2022/12/09 07:56:33;;;;;;;13.63;6.30;;;;;;;-4.20;100.00;97802.56;5071639;28;20059;-78
2022/12/09 08:01:56;;;;;;;11.20;5.63;;;;;;;-3.95;100.00;97801.34;5051066;28;20400;-78
2022/12/09 08:04:22;;;;;;;10.20;6.37;;;;;;;-3.89;100.00;97801.84;5070100;28;20044;-78
2022/12/09 08:06:49;;;;;;;10.33;5.90;;;;;;;-3.80;100.00;97788.63;5071936;28;20492;-78
2022/12/09 08:09:17;;;;;;;10.47;5.87;;;;;;;-3.65;100.00;97802.44;5072078;28;20082;-78
2022/12/09 08:11:43;;;;;;;11.37;6.00;;;;;;;-3.58;100.00;97800.13;5071865;28;20055;-78
2022/12/09 08:14:11;;;;;;;12.00;5.00;;;;;;;-3.51;100.00;97803.91;5065451;28;20082;-78
2022/12/09 08:16:38;;;;;;;8.47;5.43;;;;;;;-3.64;100.00;97785.53;5071505;28;20469;-78
2022/12/09 08:19:05;;;;;;;12.03;7.17;;;;;;;-3.48;100.00;97806.31;5066070;28;20050;-78
2022/12/09 08:21:32;;;;;;;13.73;6.15;;;;;;;-3.54;100.00;97784.75;5071240;28;20052;-78
2022/12/09 08:24:01;;;;;;;10.88;5.72;;;;;;;-3.34;100.00;97791.00;5057811;28;20470;-78
2022/12/09 08:26:31;;;;;;;13.75;6.43;;;;;;;-3.39;100.00;97776.31;5060036;28;20056;-78
2022/12/09 08:28:58;;;;;;;15.77;6.68;;;;;;;-3.25;100.00;97784.91;5071835;28;20465;-78
2022/12/09 08:31:26;;;;;;;15.45;6.85;;;;;;;-3.29;100.00;97780.84;5071340;28;20059;-78
2022/12/09 08:33:53;;;;;;;10.38;6.00;;;;;;;-3.15;100.00;97785.81;5064799;28;20045;-78
2022/12/09 08:36:22;;;;;;;13.98;7.20;;;;;;;-3.09;100.00;97784.44;5069609;28;20048;-78
2022/12/09 08:38:49;;;;;;;15.65;6.10;;;;;;;-2.98;100.00;97781.72;5071482;28;20059;-78
2022/12/09 08:41:18;;;;;;;9.43;6.00;;;;;;;-2.95;100.00;97780.56;5071528;28;20127;-78
2022/12/09 08:43:46;;;;;;;9.95;6.65;;;;;;;-3.07;100.00;97758.56;5069092;28;20040;-77
2022/12/09 08:46:13;;;;;;;15.30;6.72;;;;;;;-3.06;100.00;97769.06;5069756;28;20041;-77
2022/12/09 08:48:42;;;;;;;14.95;7.07;;;;;;;-2.81;100.00;97779.41;5071358;28;20128;-77
2022/12/09 08:51:11;;;;;;;23.95;7.45;;;;;;;-2.83;100.00;97749.41;5066331;28;20052;-77
2022/12/09 08:53:37;;;;;;;22.60;10.27;;;;;;;-2.61;100.00;97780.28;5068582;28;20131;-77
2022/12/09 08:56:09;;;;;;;39.92;14.68;;;;;;;-2.78;100.00;97752.53;5070989;28;20569;-77
2022/12/09 08:58:35;;;;;;;36.78;13.48;;;;;;;-2.61;100.00;97762.50;5071049;28;20041;-77
2022/12/09 09:01:03;;;;;;;31.27;13.55;;;;;;;-2.54;100.00;97765.47;5070742;28;20049;-78
2022/12/09 09:03:30;;;;;;;18.75;10.45;;;;;;;-2.59;100.00;97746.41;5066371;28;20056;-78
2022/12/09 09:06:00;;;;;;;19.92;9.07;;;;;;;-2.58;100.00;97772.88;5065458;28;20132;-77
2022/12/09 09:08:27;;;;;;;22.67;8.95;;;;;;;-2.59;100.00;97763.22;5069880;28;20045;-77
2022/12/09 09:10:54;;;;;;;14.18;8.45;;;;;;;-2.63;100.00;97740.53;5071098;28;20135;-78
2022/12/09 09:13:21;;;;;;;16.15;8.73;;;;;;;-2.46;100.00;97762.13;5068748;28;20487;-78
2022/12/09 09:15:47;;;;;;;18.05;8.38;;;;;;;-2.41;100.00;97758.06;5070477;28;20056;-78
2022/12/09 09:18:17;;;;;;;16.92;8.25;;;;;;;-2.29;100.00;97765.94;5070719;28;20509;-78
2022/12/09 09:20:46;;;;;;;15.38;8.27;;;;;;;-2.29;100.00;97769.41;5070651;28;20427;-78
2022/12/09 09:23:13;;;;;;;14.38;7.75;;;;;;;-2.45;100.00;97731.84;5068535;28;20048;-78
2022/12/09 09:25:40;;;;;;;14.98;8.68;;;;;;;-2.56;100.00;97754.97;5060804;28;20098;-78
2022/12/09 09:28:08;;;;;;;12.68;7.43;;;;;;;-2.36;100.00;97752.34;5070668;28;20067;-79
2022/12/09 09:30:35;;;;;;;11.57;7.43;;;;;;;-2.47;100.00;97731.97;5070291;28;20198;-79
2022/12/09 09:33:01;;;;;;;18.20;8.25;;;;;;;-2.52;100.00;97756.34;5070092;28;20101;-79
2022/12/09 09:35:29;;;;;;;19.98;9.32;;;;;;;-2.53;100.00;97748.50;5068638;28;20071;-79
2022/12/09 09:37:57;;;;;;;19.02;9.30;;;;;;;-2.62;100.00;97728.91;5070728;28;20045;-79
2022/12/09 09:40:24;;;;;;;18.42;8.77;;;;;;;-2.51;100.00;97734.09;5070599;28;20512;-79
2022/12/09 09:42:53;;;;;;;18.33;7.75;;;;;;;-2.45;100.00;97738.03;5061563;28;20044;-79
2022/12/09 09:45:23;;;;;;;16.83;7.95;;;;;;;-2.36;100.00;97747.84;5069797;28;20131;-78
2022/12/09 09:47:53;;;;;;;14.25;7.28;;;;;;;-2.33;100.00;97736.09;5070263;28;20632;-79
2022/12/09 09:50:30;;;;;;;16.13;8.32;;;;;;;-2.36;100.00;97737.19;5070651;28;20432;-79
2022/12/09 09:53:00;;;;;;;16.45;8.05;;;;;;;-2.37;100.00;97722.19;5067920;28;20458;-79
2022/12/09 09:55:32;;;;;;;;;;;;;;;-2.20;100.00;97743.78;5070919;28;20055;-79
2022/12/09 09:58:14;;;;;;;16.60;7.80;;;;;;;-2.20;100.00;97731.34;5067934;28;19970;-79
2022/12/09 10:00:47;;;;;;;20.63;8.70;;;;;;;-2.25;100.00;97722.09;5068824;28;20078;-79
2022/12/09 10:03:27;;;;;;;21.48;8.68;;;;;;;-2.16;100.00;97715.91;5065389;28;20127;-79
2022/12/09 10:05:54;;;;;;;;;;;;;;;-2.11;100.00;97718.97;5051041;28;20048;-79
2022/12/09 10:08:32;;;;;;;15.35;8.23;;;;;;;-2.13;100.00;97692.50;5050374;28;19960;-79
2022/12/09 10:11:10;;;;;;;17.65;7.30;;;;;;;-2.04;100.00;97705.97;5050157;28;20095;-79
2022/12/09 10:13:46;;;;;;;17.75;8.93;;;;;;;-1.96;100.00;97717.59;5064809;28;20044;-79
2022/12/09 10:16:16;;;;;;;17.15;7.32;;;;;;;-2.06;100.00;97682.13;5069075;28;20397;-79
2022/12/09 10:18:57;;;;;;;16.73;8.15;;;;;;;-1.81;100.00;97702.03;5071572;28;20040;-79
2022/12/09 10:21:24;;;;;;;22.35;8.38;;;;;;;-1.76;100.00;97687.41;5069685;28;20477;-79
2022/12/09 10:23:55;;;;;;;20.05;8.07;;;;;;;-1.54;100.00;97692.41;5072943;28;20118;-79
2022/12/09 10:26:25;;;;;;;19.50;9.18;;;;;;;-1.49;100.00;97692.81;5074036;28;20051;-79
2022/12/09 10:29:03;;;;;;;27.08;11.90;;;;;;;-1.51;100.00;97670.78;5073682;28;20064;-80
2022/12/09 10:31:30;;;;;;;20.65;10.40;;;;;;;-1.49;100.00;97670.66;5067103;28;20052;-79
2022/12/09 10:33:56;;;;;;;19.33;8.98;;;;;;;-1.45;100.00;97698.69;5071859;28;20131;-79
2022/12/09 10:36:24;;;;;;;13.85;7.80;;;;;;;-1.40;100.00;97698.25;5063771;28;20052;-79
2022/12/09 10:38:52;;;;;;;17.50;9.13;;;;;;;-1.44;100.00;97714.53;5067052;28;20496;-79
2022/12/09 10:44:24;;;;;;;27.02;9.98;;;;;;;-1.51;100.00;97686.78;5072846;28;20327;-79
2022/12/09 10:46:57;;;;;;;26.23;9.10;;;;;;;-1.52;100.00;97671.78;5072983;28;20056;-79
2022/12/09 10:49:24;;;;;;;20.60;8.40;;;;;;;-1.34;100.00;97698.53;5065645;28;20044;-79
2022/12/09 10:51:52;;;;;;;17.48;9.55;;;;;;;-1.26;100.00;97676.47;5071733;28;20407;-79
2022/12/09 10:54:35;;;;;;;17.17;8.50;;;;;;;-1.09;100.00;97696.19;5071428;28;20048;-79
2022/12/09 10:57:06;;;;;;;20.58;10.02;;;;;;;-1.24;100.00;97679.81;5072170;28;20051;-79
2022/12/09 10:59:34;;;;;;;20.55;9.77;;;;;;;-1.15;100.00;97686.09;5064083;28;20282;-78
2022/12/09 11:02:15;;;;;;;19.38;8.80;;;;;;;-0.92;100.00;97699.88;5073193;28;20139;-79
2022/12/09 11:04:44;;;;;;;16.65;9.32;;;;;;;-0.80;100.00;97665.84;5070313;28;20044;-79
2022/12/09 11:07:16;;;;;;;15.52;9.05;;;;;;;-0.67;100.00;97644.97;5068747;28;20434;-79
2022/12/09 11:09:45;;;;;;;29.75;10.57;;;;;;;-0.58;100.00;97652.06;5062669;28;20496;-78
2022/12/09 11:12:19;;;;;;;17.05;9.68;;;;;;;-0.58;100.00;97649.41;5072223;28;20055;-79
2022/12/09 11:14:51;;;;;;;25.60;10.95;;;;;;;-0.49;100.00;97658.34;5072834;28;20131;-78
2022/12/09 11:17:21;;;;;;;23.80;11.07;;;;;;;-0.55;100.00;97640.25;5073323;28;20057;-79
2022/12/09 11:19:51;;;;;;;21.63;10.07;;;;;;;-0.34;100.00;97666.66;5070698;28;20041;-78
2022/12/09 16:57:00;;;;;;;39.65;15.13;;;;;;;-0.11;100.00;97683.03;5108811;27;20714;-81
2022/12/09 16:59:29;;;;;;;39.97;18.02;;;;;;;0.02;100.00;97693.34;5106895;28;20055;-84
2022/12/09 17:01:56;;;;;;;42.00;17.73;;;;;;;0.16;100.00;97699.97;5094034;27;20053;-82
2022/12/09 17:04:27;;;;;;;48.58;19.58;;;;;;;0.10;100.00;97688.06;5087171;27;20048;-82
2022/12/09 17:06:54;;;;;;;48.88;20.05;;;;;;;0.27;100.00;97702.41;5107255;28;20130;-82